Time;durP1;ratioP1;P1;durP2;ratioP2;P2;SDS_P1;SDS_P2;PMS_P1;PMS_P2;Temp;Humidity;BMP_temperature;BMP_pressure;BME280_temperature;BME280_humidity;BME280_pressure;Samples;Min_cycle;Max_cycle;Signal;HPM_P1;HPM_P2
2022/03/27 00:01:32;;;;;;;;;;;;;;;2.85;50.49;96890.59;5129273;28;19927;-66
2022/03/27 00:03:58;;;;;;;;;;;;;;;2.79;50.75;96892.59;5132708;28;20311;-66
2022/03/27 00:06:23;;;;;;;;;;;;;;;2.55;51.01;96893.47;5129864;28;20407;-66
2022/03/27 00:08:50;;;;;;;;;;;;;;;2.61;51.01;96885.31;5132004;28;19934;-66
2022/03/27 00:11:27;;;;;;;;;;;;;;;2.63;50.76;96886.63;5125486;27;19928;-66
2022/03/27 00:13:54;;;;;;;;;;;;;;;2.60;50.15;96902.59;5129869;28;19927;-66
2022/03/27 00:16:20;;;;;;;;;;;;;;;2.66;49.87;96863.66;5123540;28;19934;-66
2022/03/27 00:18:47;;;;;;;;;;;;;;;2.71;49.68;96866.25;5127388;27;20384;-66
2022/03/27 00:21:13;;;;;;;;;;;;;;;2.59;49.35;96882.91;5126431;28;19932;-67
2022/03/27 00:23:39;;;;;;;;;;;;;;;2.71;49.17;96882.44;5133169;27;19934;-67
2022/03/27 00:26:06;;;;;;;;;;;;;;;2.76;48.88;96887.78;5128130;28;20018;-67
2022/03/27 00:28:32;;;;;;;;;;;;;;;2.78;48.59;96868.56;5127995;27;20399;-66
2022/03/27 00:30:58;;;;;;;;;;;;;;;2.78;48.31;96885.59;5131438;28;20425;-66
2022/03/27 00:33:25;;;;;;;;;;;;;;;2.73;48.40;96876.75;5120523;28;20033;-67
2022/03/27 00:35:51;;;;;;;;;;;;;;;2.65;48.19;96883.63;5129795;27;20030;-67
2022/03/27 00:38:17;;;;;;;;;;;;;;;2.76;48.08;96895.88;5125138;28;19980;-68
2022/03/27 00:40:43;;;;;;;;;;;;;;;2.83;47.99;96898.19;5130830;27;20399;-68
2022/03/27 00:43:10;;;;;;;;;;;;;;;2.71;48.59;96889.75;5132095;27;19927;-68
2022/03/27 00:45:36;;;;;;;;;;;;;;;2.69;48.71;96895.44;5126641;28;19946;-68
2022/03/27 00:48:03;;;;;;;;;;;;;;;2.83;47.96;96893.59;5123730;27;20345;-68
2022/03/27 00:50:30;;;;;;;;;;;;;;;2.62;48.12;96901.19;5128256;28;20023;-69
2022/03/27 00:52:57;;;;;;;;;;;;;;;2.60;47.96;96899.91;5132211;27;20021;-69
2022/03/27 00:55:22;;;;;;;;;;;;;;;2.50;48.26;96896.25;5118147;28;19944;-69
2022/03/27 00:57:48;;;;;;;;;;;;;;;2.58;48.34;96907.50;5131012;28;19935;-69
2022/03/27 01:00:36;;;;;;;;;;;;;;;2.66;48.04;96918.44;5128482;28;19935;-70
2022/03/27 01:03:04;;;;;;;;;;;;;;;2.64;48.20;96888.22;5125603;28;19928;-68
2022/03/27 01:05:29;;;;;;;;;;;;;;;2.63;48.57;96913.59;5122183;28;20046;-69
2022/03/27 01:07:56;;;;;;;;;;;;;;;2.61;48.27;96923.88;5129140;28;20441;-69
2022/03/27 01:10:23;;;;;;;;;;;;;;;2.54;48.66;96915.38;5114048;28;20018;-69
2022/03/27 01:12:49;;;;;;;;;;;;;;;2.39;49.26;96914.50;5130908;27;19927;-70
2022/03/27 01:15:24;;;;;;;;;;;;;;;2.38;49.51;96914.78;5128729;27;20026;-69
2022/03/27 01:17:50;;;;;;;;;;;;;;;2.41;49.59;96916.88;5130991;28;19928;-70
2022/03/27 01:20:21;;;;;;;;;;;;;;;2.33;50.13;96918.34;5131856;27;19943;-68
2022/03/27 01:22:47;;;;;;;;;;;;;;;2.46;50.24;96924.91;5125650;28;19927;-68
2022/03/27 01:25:13;;;;;;;;;;;;;;;2.35;50.04;96921.56;5130722;28;19977;-74
2022/03/27 01:27:39;;;;;;;;;;;;;;;2.32;50.39;96932.13;5130095;28;19927;-74
2022/03/27 01:30:06;;;;;;;;;;;;;;;2.37;50.49;96922.09;5125005;27;20271;-74
2022/03/27 01:32:32;;;;;;;;;;;;;;;2.40;50.46;96934.16;5129802;27;19939;-74
2022/03/27 01:34:58;;;;;;;;;;;;;;;2.47;50.13;96928.41;5130809;27;19927;-75
2022/03/27 01:37:25;;;;;;;;;;;;;;;2.40;50.24;96923.38;5125632;28;19967;-74
2022/03/27 01:39:51;;;;;;;;;;;;;;;2.46;50.28;96935.72;5127183;28;20008;-75
2022/03/27 01:42:17;;;;;;;;;;;;;;;2.24;50.88;96930.88;5121974;28;19979;-74
2022/03/27 01:44:43;;;;;;;;;;;;;;;2.23;50.82;96940.06;5120833;28;19934;-75
2022/03/27 01:47:09;;;;;;;;;;;;;;;2.17;51.22;96935.81;5124269;28;19962;-74
2022/03/27 01:49:35;;;;;;;;;;;;;;;2.23;51.36;96932.78;5127283;27;19928;-76
2022/03/27 01:52:02;;;;;;;;;;;;;;;2.13;51.39;96941.00;5125622;28;19934;-75
2022/03/27 01:54:28;;;;;;;;;;;;;;;2.19;51.35;96931.75;5118263;28;19928;-75
2022/03/27 01:56:54;;;;;;;;;;;;;;;2.29;51.13;96951.59;5124807;27;19941;-75
2022/03/27 01:59:21;;;;;;;;;;;;;;;2.13;51.17;96952.59;5125638;28;19931;-75
2022/03/27 02:01:47;;;;;;;;;;;;;;;2.12;51.34;96961.75;5125390;27;19934;-75
2022/03/27 02:04:13;;;;;;;;;;;;;;;2.14;51.31;96964.19;5130649;28;19928;-75
2022/03/27 02:06:39;;;;;;;;;;;;;;;2.00;51.85;96960.59;5130446;27;19927;-75
2022/03/27 02:09:05;;;;;;;;;;;;;;;1.97;51.74;96954.69;5124724;28;19977;-75
2022/03/27 02:11:32;;;;;;;;;;;;;;;2.19;51.40;96958.72;5129056;27;19927;-74
2022/03/27 02:13:58;;;;;;;;;;;;;;;2.25;50.78;96962.94;5129803;28;19927;-75
2022/03/27 02:16:24;;;;;;;;;;;;;;;2.23;50.88;96959.72;5128479;28;20406;-74
2022/03/27 02:18:50;;;;;;;;;;;;;;;2.08;51.14;96960.75;5124990;27;19997;-75
2022/03/27 02:21:16;;;;;;;;;;;;;;;2.09;51.03;96951.56;5126904;28;19969;-74
2022/03/27 02:23:42;;;;;;;;;;;;;;;2.11;50.54;96954.78;5121027;28;19927;-75
2022/03/27 02:26:08;;;;;;;;;;;;;;;2.06;51.09;96964.81;5124749;27;20337;-75
2022/03/27 02:28:35;;;;;;;;;;;;;;;2.18;50.69;96965.19;5127938;28;19967;-75
2022/03/27 02:31:01;;;;;;;;;;;;;;;2.24;50.35;96963.25;5126840;27;19931;-75
2022/03/27 02:33:27;;;;;;;;;;;;;;;2.12;50.84;96977.16;5099231;28;19928;-75
2022/03/27 02:35:53;;;;;;;;;;;;;;;2.12;51.10;96977.16;5128340;28;19927;-75
2022/03/27 02:38:19;;;;;;;;;;;;;;;2.11;51.22;96970.16;5126986;28;19970;-75
2022/03/27 02:40:46;;;;;;;;;;;;;;;2.05;51.54;96980.19;5119518;27;20022;-76
2022/03/27 02:43:12;;;;;;;;;;;;;;;2.09;51.69;96991.19;5127256;28;19935;-75
2022/03/27 02:45:39;;;;;;;;;;;;;;;2.03;52.01;96990.47;5122151;28;19927;-75
2022/03/27 02:48:06;;;;;;;;;;;;;;;2.17;52.10;96984.34;5128421;27;19927;-72
2022/03/27 02:50:32;;;;;;;;;;;;;;;1.94;52.79;96987.56;5120619;28;19959;-72
2022/03/27 02:52:58;;;;;;;;;;;;;;;2.02;52.57;97001.53;5127263;28;19970;-73
2022/03/27 02:55:24;;;;;;;;;;;;;;;1.95;52.92;97005.38;5127707;28;20427;-72
2022/03/27 02:57:51;;;;;;;;;;;;;;;1.94;52.82;97009.13;5126711;28;19932;-69
2022/03/27 03:00:17;;;;;;;;;;;;;;;1.98;52.94;96996.72;5122704;28;19928;-69
2022/03/27 03:02:44;;;;;;;;;;;;;;;2.09;52.80;97013.56;5101080;28;20323;-69
2022/03/27 03:05:11;;;;;;;;;;;;;;;1.92;53.05;96970.09;5132400;28;20112;-69
2022/03/27 03:07:38;;;;;;;;;;;;;;;2.10;52.47;97008.97;5135108;27;19928;-69
2022/03/27 03:10:05;;;;;;;;;;;;;;;2.19;52.24;97023.41;5123039;28;20026;-70
2022/03/27 03:12:31;;;;;;;;;;;;;;;2.03;52.47;97032.78;5130014;27;19931;-71
2022/03/27 03:14:57;;;;;;;;;;;;;;;1.97;52.64;97010.47;5133190;28;20018;-71
2022/03/27 03:17:23;;;;;;;;;;;;;;;2.10;51.72;97030.53;5129919;27;20022;-69
2022/03/27 03:19:50;;;;;;;;;;;;;;;2.08;51.95;97040.78;5132304;27;19927;-69
2022/03/27 03:22:16;;;;;;;;;;;;;;;2.03;52.10;97035.47;5122628;27;19934;-69
2022/03/27 03:24:43;;;;;;;;;;;;;;;1.95;52.22;97043.09;5118330;28;20018;-67
2022/03/27 03:27:09;;;;;;;;;;;;;;;2.05;52.09;97046.78;5134928;28;20050;-71
2022/03/27 03:29:35;;;;;;;;;;;;;;;1.98;52.30;97039.84;5133314;28;19964;-67
2022/03/27 03:32:01;;;;;;;;;;;;;;;1.90;51.98;97035.06;5130080;27;20406;-68
2022/03/27 03:34:27;;;;;;;;;;;;;;;1.89;51.91;97060.41;5119683;28;19927;-69
2022/03/27 03:36:53;;;;;;;;;;;;;;;1.80;51.69;97062.91;5112971;28;21433;-67
2022/03/27 03:39:19;;;;;;;;;;;;;;;1.84;52.00;97069.34;5118376;28;19936;-68
2022/03/27 03:41:45;;;;;;;;;;;;;;;1.97;51.64;97072.44;5122237;28;20287;-68
2022/03/27 03:44:11;;;;;;;;;;;;;;;1.91;51.74;97079.00;5114095;28;20306;-69
2022/03/27 03:46:37;;;;;;;;;;;;;;;1.98;51.92;97082.16;5114032;28;19963;-67
2022/03/27 03:49:06;;;;;;;;;;;;;;;2.01;51.99;97088.88;5117965;27;19931;-66
2022/03/27 03:51:33;;;;;;;;;;;;;;;2.02;51.96;97090.47;5128099;28;19932;-67
2022/03/27 03:54:00;;;;;;;;;;;;;;;1.93;52.45;97093.78;5113355;28;20035;-68
2022/03/27 03:56:26;;;;;;;;;;;;;;;1.90;52.41;97088.94;5123387;28;20383;-68
2022/03/27 03:58:51;;;;;;;;;;;;;;;2.01;52.02;97075.38;5115996;28;19928;-69
2022/03/27 04:01:18;;;;;;;;;;;;;;;2.05;51.27;97084.50;5127824;28;19935;-69
2022/03/27 04:03:43;;;;;;;;;;;;;;;1.93;50.96;97098.38;5131001;28;20204;-72
2022/03/27 04:06:09;;;;;;;;;;;;;;;2.02;50.31;97109.34;5133155;28;19927;-70
2022/03/27 04:08:36;;;;;;;;;;;;;;;2.05;49.99;97108.75;5127927;28;19927;-70
2022/03/27 04:11:02;;;;;;;;;;;;;;;2.11;49.65;97126.50;5115455;28;20023;-69
2022/03/27 04:13:28;;;;;;;;;;;;;;;2.22;48.33;97140.69;5119964;28;19931;-72
2022/03/27 04:15:54;;;;;;;;;;;;;;;2.18;48.23;97148.53;5115129;28;20367;-72
2022/03/27 04:18:20;;;;;;;;;;;;;;;2.12;47.89;97147.00;5113525;28;20397;-70
2022/03/27 04:20:46;;;;;;;;;;;;;;;2.00;47.75;97154.66;5115355;28;19935;-68
2022/03/27 04:23:12;;;;;;;;;;;;;;;1.92;47.98;97140.69;5111084;28;19928;-69
2022/03/27 04:25:38;;;;;;;;;;;;;;;1.83;48.27;97162.03;5120851;28;19984;-68
2022/03/27 04:28:07;;;;;;;;;;;;;;;1.89;47.88;97145.84;5126973;28;20307;-67
2022/03/27 04:30:34;;;;;;;;;;;;;;;1.77;48.19;97160.50;5132326;28;19927;-68
2022/03/27 04:33:00;;;;;;;;;;;;;;;1.75;48.61;97169.94;5131659;28;19932;-69
2022/03/27 04:35:26;;;;;;;;;;;;;;;1.86;48.40;97160.69;5128118;27;20295;-70
2022/03/27 04:37:51;;;;;;;;;;;;;;;1.90;48.41;97193.28;5132241;28;19959;-70
2022/03/27 04:40:18;;;;;;;;;;;;;;;1.90;48.53;97194.06;5131666;28;19972;-70
2022/03/27 04:42:44;;;;;;;;;;;;;;;1.94;48.17;97203.19;5125891;28;20027;-69
2022/03/27 04:45:11;;;;;;;;;;;;;;;1.97;47.66;97201.81;5119696;28;20097;-69
2022/03/27 04:47:38;;;;;;;;;;;;;;;1.98;47.66;97206.13;5128260;28;19972;-75
2022/03/27 04:50:05;;;;;;;;;;;;;;;2.00;47.66;97163.53;5103491;28;20383;-75
2022/03/27 04:52:31;;;;;;;;;;;;;;;1.95;47.40;97188.66;5104454;28;19932;-70
2022/03/27 04:54:57;;;;;;;;;;;;;;;2.04;47.34;97196.13;5122221;28;19935;-68
2022/03/27 04:57:23;;;;;;;;;;;;;;;2.07;47.32;97174.78;5116618;28;19927;-70
2022/03/27 04:59:49;;;;;;;;;;;;;;;1.94;47.63;97234.72;5122002;28;20383;-69
2022/03/27 05:02:17;;;;;;;;;;;;;;;1.82;47.25;97230.50;5123412;28;20034;-68
2022/03/27 05:04:44;;;;;;;;;;;;;;;1.85;47.00;97221.06;5131155;28;19931;-70
2022/03/27 05:07:10;;;;;;;;;;;;;;;1.74;47.05;97238.38;5130434;27;19927;-70
2022/03/27 05:09:35;;;;;;;;;;;;;;;1.68;47.51;97238.41;5128415;28;20490;-70
2022/03/27 05:12:02;;;;;;;;;;;;;;;1.85;47.13;97245.31;5126037;28;20386;-69
2022/03/27 05:14:29;;;;;;;;;;;;;;;1.79;46.95;97259.88;5130138;28;19980;-68
2022/03/27 05:16:55;;;;;;;;;;;;;;;1.73;46.68;97256.44;5102460;28;19927;-75
2022/03/27 05:19:22;;;;;;;;;;;;;;;1.88;45.30;97260.13;5130794;28;19931;-74
2022/03/27 05:21:48;;;;;;;;;;;;;;;1.63;45.20;97264.56;5123008;27;19949;-75
2022/03/27 05:24:14;;;;;;;;;;;;;;;1.79;44.68;97241.84;5130505;27;20370;-70
2022/03/27 05:26:40;;;;;;;;;;;;;;;1.98;43.89;97271.63;5112031;28;19932;-70
2022/03/27 05:29:08;;;;;;;;;;;;;;;2.01;43.31;97274.84;5126876;27;20283;-69
2022/03/27 05:31:34;;;;;;;;;;;;;;;1.83;42.64;97286.00;5125539;28;20400;-69
2022/03/27 05:34:03;;;;;;;;;;;;;;;1.84;42.34;97290.31;5129065;28;19937;-70
2022/03/27 05:36:31;;;;;;;;;;;;;;;2.03;42.06;97300.44;5126976;27;20588;-69
2022/03/27 05:39:00;;;;;;;;;;;;;;;2.01;41.37;97289.13;5098581;28;19928;-71
2022/03/27 05:41:26;;;;;;;;;;;;;;;2.12;40.79;97269.09;5124059;27;20037;-71
2022/03/27 05:43:52;;;;;;;;;;;;;;;1.99;40.38;97304.78;5129401;28;19927;-71
2022/03/27 05:46:18;;;;;;;;;;;;;;;2.16;40.07;97284.69;5125312;27;20371;-71
2022/03/27 05:48:44;;;;;;;;;;;;;;;2.19;39.42;97313.81;5127837;27;19927;-70
2022/03/27 05:51:10;;;;;;;;;;;;;;;2.06;39.67;97307.16;5129370;28;20077;-70
2022/03/27 05:53:37;;;;;;;;;;;;;;;2.05;39.39;97308.25;5129721;28;20030;-70
2022/03/27 05:56:03;;;;;;;;;;;;;;;1.93;39.37;97320.16;5124020;28;19927;-70
2022/03/27 05:58:29;;;;;;;;;;;;;;;1.83;39.84;97286.00;5120362;28;20025;-68
2022/03/27 06:00:55;;;;;;;;;;;;;;;1.93;39.05;97319.38;5120993;28;19927;-68
2022/03/27 06:03:22;;;;;;;;;;;;;;;1.93;39.51;97284.34;5125233;27;19927;-70
2022/03/27 06:05:49;;;;;;;;;;;;;;;2.14;39.09;97322.75;5121288;27;20474;-69
2022/03/27 06:08:15;;;;;;;;;;;;;;;2.08;38.59;97319.28;5122478;28;19927;-69
2022/03/27 06:10:42;;;;;;;;;;;;;;;2.08;38.06;97348.94;5103792;28;19958;-69
2022/03/27 06:13:10;;;;;;;;;;;;;;;2.13;38.65;97353.50;5122860;27;20048;-69
2022/03/27 06:15:36;;;;;;;;;;;;;;;2.02;38.68;97347.34;5124847;28;19927;-69
2022/03/27 06:18:02;;;;;;;;;;;;;;;2.07;38.94;97333.84;5127218;28;20025;-69
2022/03/27 06:20:29;;;;;;;;;;;;;;;2.29;38.82;97356.09;5129007;28;20362;-69
2022/03/27 06:22:56;;;;;;;;;;;;;;;2.10;40.85;97368.31;5127027;28;19927;-69
2022/03/27 06:25:22;;;;;;;;;;;;;;;1.96;43.04;97387.00;5130079;27;20399;-68
2022/03/27 06:27:49;;;;;;;;;;;;;;;1.93;44.16;97384.06;5123109;28;20290;-69
2022/03/27 06:30:16;;;;;;;;;;;;;;;1.88;44.96;97395.66;5125686;28;20401;-73
2022/03/27 06:32:42;;;;;;;;;;;;;;;1.84;45.90;97394.59;5128041;28;20362;-73
2022/03/27 06:35:09;;;;;;;;;;;;;;;1.65;46.52;97367.47;5147829;27;20459;-74
2022/03/27 06:37:35;;;;;;;;;;;;;;;1.54;46.74;97402.50;5129703;27;19927;-73
2022/03/27 06:40:02;;;;;;;;;;;;;;;1.70;46.28;97375.53;5120772;28;19935;-73
2022/03/27 06:42:29;;;;;;;;;;;;;;;1.62;44.90;97381.50;5130710;27;20394;-73
2022/03/27 06:44:55;;;;;;;;;;;;;;;1.74;44.05;97406.25;5129706;27;19932;-73
2022/03/27 06:47:22;;;;;;;;;;;;;;;1.69;42.96;97417.03;5124950;28;19927;-73
2022/03/27 06:49:48;;;;;;;;;;;;;;;1.83;42.64;97423.44;5130519;28;19966;-73
2022/03/27 06:52:15;;;;;;;;;;;;;;;1.87;41.61;97421.00;5130575;28;19931;-73
2022/03/27 06:54:41;;;;;;;;;;;;;;;1.90;41.15;97436.63;5131132;27;19971;-72
2022/03/27 06:57:07;;;;;;;;;;;;;;;1.93;40.68;97425.28;5124410;27;19927;-72
2022/03/27 07:03:01;;;;;;;;;;;;;;;1.95;40.53;97408.84;5133638;28;19935;-72
2022/03/27 07:05:04;;;;;;;;;;;;;;;2.02;40.19;97413.94;5127704;27;19981;-73
2022/03/27 07:07:30;;;;;;;;;;;;;;;2.06;39.37;97433.84;5132679;28;20291;-73
2022/03/27 07:09:56;;;;;;;;;;;;;;;2.12;39.59;97420.06;5133495;27;20388;-72
2022/03/27 07:12:22;;;;;;;;;;;;;;;2.06;39.48;97429.28;5131566;28;19962;-73
2022/03/27 07:14:49;;;;;;;;;;;;;;;1.91;39.61;97435.53;5128583;28;19928;-73
2022/03/27 07:17:15;;;;;;;;;;;;;;;1.93;39.59;97463.00;5115587;28;20016;-74
2022/03/27 07:19:42;;;;;;;;;;;;;;;1.89;39.61;97493.50;5133551;27;19927;-74
2022/03/27 07:22:08;;;;;;;;;;;;;;;1.89;39.41;97491.59;5127626;28;20375;-74
2022/03/27 07:24:34;;;;;;;;;;;;;;;2.01;39.40;97502.06;5133229;28;20033;-74
2022/03/27 07:27:00;;;;;;;;;;;;;;;2.10;38.87;97510.41;5133411;28;20156;-74
2022/03/27 07:29:27;;;;;;;;;;;;;;;1.97;38.75;97501.00;5132090;28;19927;-74
2022/03/27 07:31:53;;;;;;;;;;;;;;;1.98;39.56;97494.53;5125621;27;19997;-74
2022/03/27 07:34:21;;;;;;;;;;;;;;;1.88;40.19;97502.66;5125494;28;21914;-74
2022/03/27 07:36:48;;;;;;;;;;;;;;;1.94;39.88;97525.81;5132996;28;20451;-74
2022/03/27 07:39:13;;;;;;;;;;;;;;;2.03;39.68;97543.06;5130256;28;19932;-74
2022/03/27 07:41:39;;;;;;;;;;;;;;;2.11;39.17;97531.69;5126190;28;19934;-74
2022/03/27 07:44:06;;;;;;;;;;;;;;;1.94;39.12;97544.69;5125719;27;19927;-73
2022/03/27 07:46:32;;;;;;;;;;;;;;;1.89;39.31;97515.06;5132245;27;19998;-73
2022/03/27 07:48:58;;;;;;;;;;;;;;;1.98;38.90;97534.97;5131390;28;19928;-72
2022/03/27 07:51:24;;;;;;;;;;;;;;;2.15;38.30;97523.06;5138885;27;19928;-72
2022/03/27 07:53:52;;;;;;;;;;;;;;;2.15;37.87;97531.13;5129036;28;19954;-73
2022/03/27 07:56:18;;;;;;;;;;;;;;;2.07;37.89;97557.59;5131682;27;19928;-71
2022/03/27 07:58:44;;;;;;;;;;;;;;;1.96;38.00;97540.66;5109932;28;19927;-73
2022/03/27 08:01:12;;;;;;;;;;;;;;;1.91;38.33;97564.91;5127422;28;20035;-74
2022/03/27 08:03:39;;;;;;;;;;;;;;;1.82;38.55;97570.03;5129561;28;19927;-74
2022/03/27 08:06:06;;;;;;;;;;;;;;;1.88;38.64;97575.44;5130163;28;20060;-70
2022/03/27 08:08:32;;;;;;;;;;;;;;;2.00;38.76;97581.31;5128067;27;19927;-72
2022/03/27 08:10:59;;;;;;;;;;;;;;;2.01;39.02;97565.97;5130036;28;19934;-72
2022/03/27 08:13:25;;;;;;;;;;;;;;;2.09;39.21;97554.63;5124773;28;19966;-72
2022/03/27 08:15:51;;;;;;;;;;;;;;;2.30;38.59;97563.44;5120307;28;19977;-71
2022/03/27 08:18:17;;;;;;;;;;;;;;;2.15;38.24;97603.94;5119372;28;20022;-71
2022/03/27 08:20:43;;;;;;;;;;;;;;;2.22;38.52;97577.50;5128557;28;19935;-71
2022/03/27 08:23:09;;;;;;;;;;;;;;;2.09;38.80;97568.09;5129731;28;19934;-70
2022/03/27 08:28:21;;;;;;;;;;;;;;;2.06;38.32;97582.94;5126895;28;19927;-71
2022/03/27 08:30:47;;;;;;;;;;;;;;;2.16;37.58;97586.69;5129713;28;20372;-71
2022/03/27 08:33:13;;;;;;;;;;;;;;;2.04;37.45;97603.97;5129813;28;19959;-71
2022/03/27 08:35:41;;;;;;;;;;;;;;;1.94;37.88;97609.38;5126539;28;20034;-72
2022/03/27 08:38:08;;;;;;;;;;;;;;;1.97;37.51;97614.22;5129541;28;19981;-72
2022/03/27 08:40:35;;;;;;;;;;;;;;;1.86;38.68;97609.91;5131703;28;19955;-71
2022/03/27 08:43:01;;;;;;;;;;;;;;;1.98;39.01;97618.53;5127983;28;21725;-71
2022/03/27 08:45:28;;;;;;;;;;;;;;;1.95;39.34;97624.47;5125885;28;20388;-71
2022/03/27 08:47:54;;;;;;;;;;;;;;;2.06;39.13;97628.78;5119979;28;19928;-72
2022/03/27 08:50:29;;;;;;;;;;;;;;;2.03;39.07;97606.94;5132355;28;19935;-72
2022/03/27 08:52:56;;;;;;;;;;;;;;;2.25;38.75;97644.38;5112031;28;19958;-71
2022/03/27 08:55:30;;;;;;;;;;;;;;;2.18;38.47;97595.31;5121878;28;20409;-72
2022/03/27 08:57:57;;;;;;;;;;;;;;;2.05;37.83;97637.13;5120825;27;19927;-75
2022/03/27 09:00:23;;;;;;;;;;;;;;;2.06;37.98;97644.13;5119454;28;19932;-77
2022/03/27 09:02:50;;;;;;;;;;;;;;;2.31;37.30;97648.66;5123470;28;20036;-74
2022/03/27 09:05:20;;;;;;;;;;;;;;;2.21;37.02;97649.50;5123703;27;20025;-73
2022/03/27 09:07:47;;;;;;;;;;;;;;;2.05;37.60;97664.91;5130684;28;19988;-74
2022/03/27 09:10:14;;;;;;;;;;;;;;;2.08;37.79;97675.16;5131387;27;19928;-74
2022/03/27 09:12:41;;;;;;;;;;;;;;;2.00;38.37;97658.72;5123728;28;19934;-73
2022/03/27 09:15:12;;;;;;;;;;;;;;;1.86;38.59;97693.47;5129922;28;20387;-75
2022/03/27 09:17:59;;;;;;;;;;;;;;;2.13;38.33;97677.81;5128991;28;19972;-74
2022/03/27 09:20:37;;;;;;;;;;;;;;;2.25;37.58;97645.16;5089418;28;20026;-74
2022/03/27 09:23:12;;;;;;;;;;;;;;;2.43;37.50;97688.03;5144892;27;19980;-74
2022/03/27 09:25:44;;;;;;;;;;;;;;;2.41;37.23;97705.31;5113594;27;19932;-74
2022/03/27 09:28:10;;;;;;;;;;;;;;;2.37;37.43;97696.16;5121332;28;19986;-75
2022/03/27 09:30:36;;;;;;;;;;;;;;;2.47;37.19;97692.63;5116547;28;19963;-74
2022/03/27 09:33:02;;;;;;;;;;;;;;;2.19;37.58;97699.41;5127103;28;20361;-75
2022/03/27 09:35:29;;;;;;;;;;;;;;;2.24;37.49;97713.66;5122114;28;19988;-75
2022/03/27 09:37:55;;;;;;;;;;;;;;;2.30;37.98;97736.06;5120384;27;19927;-74
2022/03/27 09:40:22;;;;;;;;;;;;;;;2.31;38.65;97728.78;5121393;27;19938;-76
2022/03/27 09:43:07;;;;;;;;;;;;;;;2.37;38.73;97717.72;5127334;28;19932;-72
2022/03/27 09:45:33;;;;;;;;;;;;;;;2.78;38.27;97724.09;5112200;28;20022;-78
2022/03/27 09:48:06;;;;;;;;;;;;;;;2.90;37.06;97740.81;5120951;28;19955;-74
2022/03/27 09:50:35;;;;;;;;;;;;;;;2.89;36.67;97744.59;5118145;28;19928;-73
2022/03/27 09:53:24;;;;;;;;;;;;;;;2.76;37.07;97742.47;5119019;28;19927;-73
2022/03/27 09:55:51;;;;;;;;;;;;;;;2.60;37.50;97739.00;5131631;27;19928;-72
2022/03/27 09:58:32;;;;;;;;;;;;;;;2.48;38.87;97766.25;5119295;28;19927;-73
2022/03/27 10:01:07;;;;;;;;;;;;;;;2.50;39.11;97758.72;5124187;28;19927;-73
2022/03/27 10:03:36;;;;;;;;;;;;;;;2.63;39.33;97763.53;5124426;28;19934;-74
2022/03/27 10:06:03;;;;;;;;;;;;;;;2.74;39.58;97767.03;5124044;28;19933;-73
2022/03/27 10:08:34;;;;;;;;;;;;;;;2.64;39.79;97794.81;5119250;28;19938;-69
2022/03/27 10:11:01;;;;;;;;;;;;;;;2.58;40.37;97795.13;5118963;28;20387;-68
2022/03/27 10:13:29;;;;;;;;;;;;;;;2.58;40.63;97789.75;5103289;28;19963;-68
2022/03/27 10:15:57;;;;;;;;;;;;;;;2.91;39.81;97742.41;5114220;28;19927;-68
2022/03/27 10:18:24;;;;;;;;;;;;;;;3.11;38.17;97768.56;5120941;28;19928;-68
2022/03/27 10:20:55;;;;;;;;;;;;;;;3.24;37.78;97785.25;5103312;28;20538;-72
2022/03/27 10:23:23;;;;;;;;;;;;;;;3.20;37.92;97806.59;5099669;28;20381;-73
2022/03/27 10:25:53;;;;;;;;;;;;;;;3.11;38.05;97786.63;5102659;28;19935;-71
2022/03/27 10:28:20;;;;;;;;;;;;;;;3.17;38.78;97790.94;5124476;28;19950;-73
2022/03/27 10:30:49;;;;;;;;;;;;;;;3.00;41.16;97798.56;5106986;28;19989;-72
2022/03/27 10:33:15;;;;;;;;;;;;;;;2.80;42.43;97828.03;5106046;28;19936;-73
2022/03/27 10:35:52;;;;;;;;;;;;;;;2.58;43.83;97822.13;5108190;28;19934;-73
2022/03/27 10:38:23;;;;;;;;;;;;;;;2.55;44.72;97823.47;5116896;27;20042;-73
2022/03/27 10:40:55;;;;;;;;;;;;;;;2.72;43.78;97819.66;5104137;28;19932;-73
2022/03/27 10:43:25;;;;;;;;;;;;;;;3.02;42.67;97816.09;5097236;28;19939;-73
2022/03/27 10:46:12;;;;;;;;;;;;;;;3.05;42.32;97807.47;5098292;28;19932;-73
2022/03/27 10:48:42;;;;;;;;;;;;;;;2.70;42.73;97817.22;5112808;28;19954;-72
2022/03/27 10:51:08;;;;;;;;;;;;;;;2.86;41.26;97812.63;5097778;28;19935;-74
2022/03/27 10:53:34;;;;;;;;;;;;;;;2.81;40.99;97828.81;5122459;28;19936;-73
2022/03/27 10:56:00;;;;;;;;;;;;;;;2.85;40.73;97821.81;5103092;28;19934;-73
2022/03/27 10:58:31;;;;;;;;;;;;;;;2.77;40.82;97828.56;5110578;28;19935;-71
2022/03/27 11:00:58;;;;;;;;;;;;;;;2.57;41.14;97848.28;5107533;28;19973;-73
2022/03/27 11:03:48;;;;;;;;;;;;;;;2.66;40.99;97835.06;5105404;28;19928;-75
2022/03/27 11:06:20;;;;;;;;;;;;;;;2.47;41.26;97822.09;5103257;28;20400;-71
2022/03/27 11:08:47;;;;;;;;;;;;;;;2.59;41.39;97854.22;5108367;28;20295;-74
2022/03/27 11:11:27;;;;;;;;;;;;;;;2.63;41.31;97855.28;5097736;28;20395;-73
2022/03/27 11:13:54;;;;;;;;;;;;;;;2.75;40.54;97848.81;5090896;28;19928;-73
2022/03/27 11:16:20;;;;;;;;;;;;;;;2.49;41.07;97846.09;5105706;28;19928;-73
2022/03/27 11:18:48;;;;;;;;;;;;;;;2.41;41.16;97875.25;5103965;28;19989;-72
2022/03/27 11:21:34;;;;;;;;;;;;;;;2.38;40.82;97883.06;5107361;28;19935;-72
2022/03/27 11:24:15;;;;;;;;;;;;;;;2.50;41.29;97864.72;5086216;28;19928;-74
2022/03/27 11:26:41;;;;;;;;;;;;;;;2.40;41.07;97868.25;5106978;28;20436;-74
2022/03/27 11:29:19;;;;;;;;;;;;;;;2.29;41.46;97884.69;5112154;28;19981;-74
2022/03/27 11:32:02;;;;;;;;;;;;;;;2.28;41.93;97902.72;5104302;28;19928;-73
2022/03/27 11:34:28;;;;;;;;;;;;;;;2.18;42.80;97898.13;5102944;28;20026;-73
2022/03/27 11:37:12;;;;;;;;;;;;;;;2.12;43.32;97907.31;5111014;28;19927;-72
2022/03/27 11:39:39;;;;;;;;;;;;;;;2.06;43.65;97925.34;5122924;28;19934;-72
2022/03/27 11:42:25;;;;;;;;;;;;;;;1.98;44.11;97926.66;5110323;28;20062;-72
2022/03/27 11:45:09;;;;;;;;;;;;;;;2.06;43.49;97916.44;5111023;28;20363;-73
2022/03/27 11:47:36;;;;;;;;;;;;;;;2.13;42.91;97930.50;5101809;28;20381;-74
2022/03/27 11:50:03;;;;;;;;;;;;;;;2.16;41.88;97927.25;5111189;28;20383;-72
2022/03/27 11:52:29;;;;;;;;;;;;;;;2.32;41.84;97930.00;5106295;28;19927;-73
2022/03/27 11:55:01;;;;;;;;;;;;;;;2.22;41.40;97938.88;5110101;28;19932;-74
2022/03/27 11:57:39;;;;;;;;;;;;;;;2.19;41.64;97932.13;5103122;28;20421;-73
2022/03/27 12:00:06;;;;;;;;;;;;;;;2.39;41.01;97952.13;5107295;28;20315;-74
2022/03/27 12:02:40;;;;;;;;;;;;;;;2.45;41.34;97917.88;5107221;28;20425;-73
2022/03/27 12:05:06;;;;;;;;;;;;;;;2.89;40.82;97930.88;5105914;28;19953;-72
2022/03/27 12:07:48;;;;;;;;;;;;;;;2.71;41.01;97959.19;5109172;28;19981;-72
2022/03/27 12:10:14;;;;;;;;;;;;;;;2.69;40.50;97932.47;5126500;28;20298;-73
2022/03/27 12:12:54;;;;;;;;;;;;;;;2.80;40.14;97959.47;5110703;28;20479;-72
2022/03/27 12:15:20;;;;;;;;;;;;;;;2.62;40.75;97980.50;5108376;28;19973;-75
2022/03/27 12:17:47;;;;;;;;;;;;;;;2.41;41.07;97988.56;5088048;28;19932;-77
2022/03/27 12:20:15;;;;;;;;;;;;;;;2.45;41.00;97994.22;5085975;28;20031;-77
2022/03/27 12:22:43;;;;;;;;;;;;;;;2.37;40.72;98010.91;5117563;28;19939;-77
2022/03/27 12:25:17;;;;;;;;;;;;;;;2.34;40.67;98011.47;5100208;28;19963;-78
2022/03/27 12:30:32;;;;;;;;;;;;;;;2.29;40.40;98009.53;5088923;28;19927;-76
2022/03/27 12:33:00;;;;;;;;;;;;;;;2.29;40.46;98012.25;5121889;27;20375;-78
2022/03/27 12:35:27;;;;;;;;;;;;;;;2.51;40.15;98013.94;5096307;28;19932;-82
2022/03/27 12:37:54;;;;;;;;;;;;;;;2.51;39.43;97973.47;5086125;28;19928;-79
2022/03/27 12:42:06;;;;;;;6.32;1.50;;;;;;;2.23;39.38;98008.72;5170068;27;20181;-71
2022/03/27 12:44:51;;;;;;;4.85;1.40;;;;;;;2.29;38.73;98025.72;5154960;27;20058;-74
2022/03/27 12:47:18;;;;;;;6.30;1.30;;;;;;;2.16;38.29;98037.81;5142737;27;20126;-76
2022/03/27 12:49:48;;;;;;;6.35;1.98;;;;;;;1.98;38.57;98042.59;5147011;27;20039;-76
2022/03/27 12:52:15;;;;;;;14.68;2.08;;;;;;;1.98;39.35;98028.28;5129490;27;20184;-77
2022/03/27 12:54:54;;;;;;;7.35;2.33;;;;;;;2.02;39.99;98040.16;5145984;27;20570;-74
2022/03/27 12:57:21;;;;;;;7.82;1.98;;;;;;;2.49;39.27;98043.06;5145872;27;20407;-73
2022/03/27 12:59:47;;;;;;;6.75;1.77;;;;;;;2.56;38.74;98038.25;5128635;27;20409;-75
2022/03/27 13:02:27;;;;;;;4.25;1.50;;;;;;;2.52;37.92;98064.13;5127722;27;20462;-74
2022/03/27 13:04:57;;;;;;;9.25;2.45;;;;;;;2.26;38.31;98015.47;5148714;27;20050;-75
2022/03/27 13:07:50;;;;;;;2.47;1.25;;;;;;;1.95;36.42;98048.50;5118723;27;20475;-74